Kezdőlap
METAR-TAF:

METAR-TAF

Repülőterek :

Bloomington, Indiana, Amerikai Egyesült Államok

földrajzi szélesség: 39-08-35N, földrajzi hosszúság: 086-37-00W, magasság: 257 m

Jelenlegi meteorológiai megfigyelések

A jelentés 56 perccel ezelõtt készült, 03:53 UTC
Északi szél 5 kt
Hőmérséklet 21°C
Páratartalom 56%
Légköri nyomás 1016 hPa
Látótávolság: 16.1 km
Derült ég

METAR: KBMG 150353Z AUTO 36005KT 10SM CLR 21/12 A3001 RMK AO2 SLP154 T02060122

Idő: 00:49 (04:49 UTC)

Előrejelzés

A jelentés 5 órával és 11 perccel ezelõtt készült, 23:38 UTC
Az előrejelzés 15-én 00 óra UTC és 15-én 24 óra UTC között érvényes
Északi szél 7 kt
Látótávolság: 10 km
Derült ég
15-én 0200 órától UTC szerint
Északkeleti szél 3 kt
Látótávolság: 10 km
Derült ég
15-én 1200 órától UTC szerint
Kelet-délkeleti szél 6 kt
Látótávolság: 10 km
Kevés felhő 4000 lábon

TAF: KBMG 142338Z 1500/1524 36007KT P6SM SKC FM150200 04003KT P6SM SKC FM151200 11006KT P6SM FEW040

Meteorológiai megfigyelések és előrejelzések több, mint 4000 repülőtéren (METAR és TAF jelentéseket).

A térképen piros és sárga pontok jelzik az elérhető meteorológiai állomásokat.

Mozgassa az egeret a pont fölött, hogy megjelenjen az állomás neve.

Azután kattintson az időjárási megfigyelések és előrejelzések megtekintéséhez.

A térkép megváltoztatása: kattintson a fekete keresztel jelölt zöld gombra ráközelítéshez, a vonallal jelölt zöld gombra távolításhoz, vagy a zöld nyilakra a szomszédos térképek eléréséhez.


METAR-TAF: